createdAt,value
2018-11-06T00:01:54.658Z,100565.22
2018-11-06T00:05:05.196Z,100572.09
2018-11-06T00:08:10.272Z,100571.19
2018-11-06T00:11:15.577Z,100567.77
2018-11-06T00:14:21.866Z,100569.06
2018-11-06T00:17:27.207Z,100572.88
2018-11-06T00:20:32.553Z,100564.27
2018-11-06T00:23:38.180Z,100565.05
2018-11-06T00:26:43.415Z,100556.44
2018-11-06T00:29:48.763Z,100556.00
2018-11-06T00:32:53.064Z,100543.41
2018-11-06T00:35:57.381Z,100549.04
2018-11-06T00:39:01.666Z,100548.13
2018-11-06T00:42:06.083Z,100548.96
2018-11-06T00:45:16.108Z,100549.04
2018-11-06T00:48:20.829Z,100553.80
2018-11-06T00:51:26.536Z,100544.16
2018-11-06T00:54:31.956Z,100553.20
2018-11-06T00:57:38.122Z,100560.13
2018-11-06T01:00:43.760Z,100552.34
2018-11-06T01:03:50.131Z,100545.85
2018-11-06T01:06:55.761Z,100534.33
2018-11-06T01:10:00.984Z,100517.44
2018-11-06T01:13:06.536Z,100498.29
2018-11-06T01:16:11.386Z,100511.70
2018-11-06T01:19:16.659Z,100498.30
2018-11-06T01:22:21.878Z,100489.16
2018-11-06T01:25:27.599Z,100497.82
2018-11-06T01:28:33.000Z,100505.13
2018-11-06T01:31:39.143Z,100504.19
2018-11-06T01:34:44.035Z,100491.20
2018-11-06T01:37:48.982Z,100492.59
2018-11-06T01:40:55.713Z,100493.49
2018-11-06T01:44:00.929Z,100494.70
2018-11-06T01:47:06.375Z,100491.20
2018-11-06T01:50:14.730Z,100497.66
2018-11-06T01:53:19.074Z,100505.44
2018-11-06T01:56:23.400Z,100498.95
2018-11-06T01:59:27.684Z,100503.67
2018-11-06T02:02:31.977Z,100499.74
2018-11-06T02:05:36.257Z,100502.34
2018-11-06T02:08:40.495Z,100496.75
2018-11-06T02:11:45.544Z,100482.52
2018-11-06T02:14:51.151Z,100484.64
2018-11-06T02:17:56.051Z,100473.00
2018-11-06T02:21:01.129Z,100468.67
2018-11-06T02:24:06.374Z,100463.91
2018-11-06T02:27:11.529Z,100474.64
2018-11-06T02:30:17.758Z,100484.13
2018-11-06T02:33:23.160Z,100487.55
2018-11-06T02:36:28.330Z,100485.42
2018-11-06T02:39:33.781Z,100481.53
2018-11-06T02:42:40.150Z,100482.39
2018-11-06T02:45:45.083Z,100485.85
2018-11-06T02:48:50.273Z,100472.41
2018-11-06T02:51:55.673Z,100468.47
2018-11-06T02:55:00.451Z,100464.58
2018-11-06T02:58:05.648Z,100454.67
2018-11-06T03:01:10.857Z,100445.59
2018-11-06T03:04:16.337Z,100447.75
2018-11-06T03:07:21.372Z,100442.09
2018-11-06T03:10:26.836Z,100449.40
2018-11-06T03:13:31.737Z,100452.42
2018-11-06T03:16:36.654Z,100461.91
2018-11-06T03:19:41.784Z,100452.86
2018-11-06T03:22:47.131Z,100450.73
2018-11-06T03:25:55.024Z,100464.55
2018-11-06T03:29:00.165Z,100461.47
2018-11-06T03:32:05.726Z,100467.92
2018-11-06T03:35:16.185Z,100467.95
2018-11-06T03:38:21.679Z,100468.30
2018-11-06T03:41:26.790Z,100473.02
2018-11-06T03:44:32.445Z,100478.20
2018-11-06T03:47:39.014Z,100476.05
2018-11-06T03:50:44.080Z,100469.56
2018-11-06T03:53:49.221Z,100460.41
2018-11-06T03:56:54.154Z,100462.52
2018-11-06T03:59:59.390Z,100464.29
2018-11-06T04:03:04.588Z,100456.03
2018-11-06T04:06:09.562Z,100465.98
2018-11-06T04:09:15.189Z,100466.76
2018-11-06T04:12:21.900Z,100464.59
2018-11-06T04:15:27.240Z,100443.84
2018-11-06T04:18:32.580Z,100444.27
2018-11-06T04:21:40.805Z,100451.23
2018-11-06T04:24:46.106Z,100458.06
2018-11-06T04:27:51.186Z,100457.63
2018-11-06T04:30:56.537Z,100469.22
2018-11-06T04:34:02.085Z,100461.01
2018-11-06T04:37:10.503Z,100456.72
2018-11-06T04:40:16.043Z,100459.70
2018-11-06T04:43:20.679Z,100463.55
2018-11-06T04:46:26.001Z,100439.78
2018-11-06T04:49:31.062Z,100438.05
2018-11-06T04:52:36.149Z,100446.30
2018-11-06T04:55:41.391Z,100446.30
2018-11-06T04:58:46.805Z,100450.63
2018-11-06T05:01:52.232Z,100457.55
2018-11-06T05:04:58.683Z,100461.86
2018-11-06T05:08:03.891Z,100455.38
2018-11-06T05:11:09.187Z,100454.09
2018-11-06T05:14:16.978Z,100454.00
2018-11-06T05:17:22.539Z,100455.64
2018-11-06T05:20:27.475Z,100450.75
2018-11-06T05:23:32.867Z,100452.00
2018-11-06T05:26:37.383Z,100455.45
2018-11-06T05:29:42.181Z,100460.64
2018-11-06T05:32:47.447Z,100479.67
2018-11-06T05:35:52.767Z,100486.62
2018-11-06T05:38:57.098Z,100493.11
2018-11-06T05:42:01.408Z,100491.72
2018-11-06T05:45:05.790Z,100491.76
2018-11-06T05:48:10.031Z,100493.49
2018-11-06T05:51:14.679Z,100487.87
2018-11-06T05:54:19.494Z,100494.35
2018-11-06T05:57:25.672Z,100478.80
2018-11-06T06:00:30.055Z,100472.66
2018-11-06T06:03:34.599Z,100460.08
2018-11-06T06:06:39.662Z,100467.42
2018-11-06T06:09:48.652Z,100475.24
2018-11-06T06:12:52.976Z,100483.41
2018-11-06T06:15:58.192Z,100480.81
2018-11-06T06:19:03.601Z,100485.23
2018-11-06T06:22:09.185Z,100483.89
2018-11-06T06:25:13.889Z,100492.02
2018-11-06T06:28:19.334Z,100498.83
2018-11-06T06:31:24.652Z,100511.87
2018-11-06T06:34:29.635Z,100515.69
2018-11-06T06:37:34.649Z,100530.41
2018-11-06T06:40:39.037Z,100534.69
2018-11-06T06:43:43.801Z,100548.75
2018-11-06T06:46:48.739Z,100549.16
2018-11-06T06:49:54.064Z,100543.70
2018-11-06T06:52:58.333Z,100547.88
2018-11-06T06:56:02.865Z,100546.05
2018-11-06T06:59:07.471Z,100544.65
2018-11-06T07:02:12.131Z,100546.75
2018-11-06T07:05:20.520Z,100546.80
2018-11-06T07:08:25.540Z,100558.08
2018-11-06T07:11:29.870Z,100563.54
2018-11-06T07:14:38.256Z,100570.39
2018-11-06T07:17:45.000Z,100563.44
2018-11-06T07:20:49.956Z,100565.16
2018-11-06T07:23:54.939Z,100562.19
2018-11-06T07:26:59.772Z,100559.92
2018-11-06T07:30:04.392Z,100574.67
2018-11-06T07:33:09.144Z,100575.84
2018-11-06T07:36:13.814Z,100575.31
2018-11-06T07:39:18.588Z,100580.49
2018-11-06T07:42:23.938Z,100585.36
2018-11-06T07:45:29.055Z,100587.93
2018-11-06T07:48:33.369Z,100591.83
2018-11-06T07:51:37.719Z,100595.85
2018-11-06T07:54:42.136Z,100593.39
2018-11-06T07:57:46.496Z,100608.44
2018-11-06T08:00:51.182Z,100601.70
2018-11-06T08:03:57.133Z,100607.37
2018-11-06T08:07:02.994Z,100601.38
2018-11-06T08:10:10.790Z,100594.47
2018-11-06T08:13:16.181Z,100595.17
2018-11-06T08:16:22.950Z,100601.31
2018-11-06T08:19:28.158Z,100617.37
2018-11-06T08:22:32.393Z,100622.61
2018-11-06T08:25:37.538Z,100623.20
2018-11-06T08:28:41.880Z,100636.21
2018-11-06T08:31:46.653Z,100638.81
2018-11-06T08:34:51.257Z,100646.70
2018-11-06T08:37:56.193Z,100640.97
2018-11-06T08:41:01.679Z,100646.16
2018-11-06T08:44:07.324Z,100652.27
2018-11-06T08:47:13.224Z,100645.88
2018-11-06T08:50:19.492Z,100639.80
2018-11-06T08:53:24.632Z,100653.73
2018-11-06T08:56:35.057Z,100654.65
2018-11-06T08:59:40.045Z,100640.92
2018-11-06T09:02:46.042Z,100649.04
2018-11-06T09:05:52.584Z,100645.58
2018-11-06T09:08:58.497Z,100647.03
2018-11-06T09:12:03.653Z,100644.92
2018-11-06T09:15:15.363Z,100648.00
2018-11-06T09:18:19.664Z,100652.27
2018-11-06T09:21:23.932Z,100652.70
2018-11-06T09:24:30.112Z,100661.72
2018-11-06T09:27:35.875Z,100660.11
2018-11-06T09:30:41.539Z,100666.27
2018-11-06T09:33:46.237Z,100662.81
2018-11-06T09:36:51.872Z,100666.27
2018-11-06T09:40:00.435Z,100666.80
2018-11-06T09:43:06.152Z,100677.73
2018-11-06T09:46:11.396Z,100672.20
2018-11-06T09:49:18.267Z,100679.66
2018-11-06T09:52:23.729Z,100685.60
2018-11-06T09:55:28.889Z,100688.20
2018-11-06T09:58:33.820Z,100683.51
2018-11-06T10:01:38.649Z,100685.66
2018-11-06T10:04:44.188Z,100691.02
2018-11-06T10:07:49.287Z,100695.88
2018-11-06T10:10:54.401Z,100704.04
2018-11-06T10:13:59.210Z,100709.33
2018-11-06T10:17:05.279Z,100711.39
2018-11-06T10:20:11.430Z,100706.42
2018-11-06T10:23:16.681Z,100707.40
2018-11-06T10:26:21.926Z,100694.09
2018-11-06T10:29:27.081Z,100685.51
2018-11-06T10:32:32.164Z,100693.88
2018-11-06T10:35:37.231Z,100691.34
2018-11-06T10:38:42.553Z,100692.62
2018-11-06T10:41:47.243Z,100698.02
2018-11-06T10:44:51.923Z,100696.77
2018-11-06T10:47:57.561Z,100692.39
2018-11-06T10:51:02.529Z,100694.56
2018-11-06T10:54:07.829Z,100691.48
2018-11-06T10:57:12.729Z,100691.15
2018-11-06T11:00:22.608Z,100693.36
2018-11-06T11:03:39.063Z,100691.69
2018-11-06T11:06:43.320Z,100686.55
2018-11-06T11:09:48.352Z,100689.14
2018-11-06T11:12:53.477Z,100690.25
2018-11-06T11:15:58.817Z,100695.91
2018-11-06T11:19:03.914Z,100689.23
2018-11-06T11:22:09.163Z,100700.58
2018-11-06T11:25:15.571Z,100692.80
2018-11-06T11:28:20.660Z,100693.52
2018-11-06T11:31:25.569Z,100703.07
2018-11-06T11:34:30.649Z,100707.02
2018-11-06T11:37:36.456Z,100701.87
2018-11-06T11:40:41.062Z,100698.56
2018-11-06T11:43:46.955Z,100703.47
2018-11-06T11:46:51.995Z,100697.11
2018-11-06T11:49:56.765Z,100695.98
2018-11-06T11:53:01.193Z,100694.16
2018-11-06T11:56:05.949Z,100703.39
2018-11-06T11:59:10.673Z,100697.24
2018-11-06T12:02:15.489Z,100693.77
2018-11-06T12:05:20.328Z,100690.01
2018-11-06T12:08:25.249Z,100699.67
2018-11-06T12:11:29.682Z,100708.67
2018-11-06T12:14:35.016Z,100693.12
2018-11-06T12:17:39.974Z,100690.87
2018-11-06T12:20:44.736Z,100683.91
2018-11-06T12:23:49.950Z,100681.70
2018-11-06T12:26:55.100Z,100675.46
2018-11-06T12:29:59.772Z,100681.05
2018-11-06T12:33:04.349Z,100681.39
2018-11-06T12:36:08.854Z,100680.17
2018-11-06T12:39:14.763Z,100677.63
2018-11-06T12:42:19.458Z,100675.16
2018-11-06T12:45:23.745Z,100682.91
2018-11-06T12:48:29.022Z,100692.43
2018-11-06T12:51:34.441Z,100689.05
2018-11-06T12:54:38.696Z,100693.25
2018-11-06T12:57:43.016Z,100693.04
2018-11-06T13:00:47.304Z,100691.16
2018-11-06T13:03:51.661Z,100692.56
2018-11-06T13:06:55.971Z,100690.86
2018-11-06T13:10:00.856Z,100686.32
2018-11-06T13:13:07.315Z,100680.31
2018-11-06T13:16:13.046Z,100672.91
2018-11-06T13:19:17.447Z,100672.30
2018-11-06T13:22:21.879Z,100676.75
2018-11-06T13:25:27.376Z,100672.30
2018-11-06T13:28:31.647Z,100673.60
2018-11-06T13:31:35.932Z,100675.84
2018-11-06T13:34:41.099Z,100676.80
2018-11-06T13:37:45.889Z,100678.63
2018-11-06T13:40:50.481Z,100675.55
2018-11-06T13:43:55.147Z,100685.55
2018-11-06T13:46:59.518Z,100691.57
2018-11-06T13:50:04.187Z,100685.42
2018-11-06T13:53:09.302Z,100685.77
2018-11-06T13:56:14.136Z,100695.16
2018-11-06T13:59:25.903Z,100693.37
2018-11-06T14:02:30.137Z,100696.69
2018-11-06T14:05:34.619Z,100706.59
2018-11-06T14:08:39.559Z,100713.45
2018-11-06T14:11:44.129Z,100709.31
2018-11-06T14:14:48.446Z,100704.06
2018-11-06T14:17:52.815Z,100704.89
2018-11-06T14:20:57.958Z,100701.05
2018-11-06T14:24:03.429Z,100709.64
2018-11-06T14:27:07.865Z,100716.36
2018-11-06T14:30:16.531Z,100718.41
2018-11-06T14:33:21.085Z,100716.08
2018-11-06T14:36:25.829Z,100713.48
2018-11-06T14:39:30.567Z,100717.27
2018-11-06T14:42:35.585Z,100710.30
2018-11-06T14:45:40.139Z,100711.59
2018-11-06T14:48:44.607Z,100714.68
2018-11-06T14:51:49.422Z,100717.23
2018-11-06T14:54:54.235Z,100718.09
2018-11-06T14:57:58.969Z,100724.41
2018-11-06T15:01:03.723Z,100722.55
2018-11-06T15:04:08.596Z,100724.17
2018-11-06T15:07:13.411Z,100721.10
2018-11-06T15:10:18.194Z,100720.19
2018-11-06T15:13:23.689Z,100727.33
2018-11-06T15:16:28.500Z,100731.52
2018-11-06T15:19:33.710Z,100735.05
2018-11-06T15:22:39.227Z,100736.23
2018-11-06T15:25:44.197Z,100730.48
2018-11-06T15:28:48.986Z,100743.76
2018-11-06T15:31:53.483Z,100750.62
2018-11-06T15:34:58.692Z,100750.31
2018-11-06T15:38:03.503Z,100755.00
2018-11-06T15:41:08.352Z,100754.14
2018-11-06T15:44:12.624Z,100761.41
2018-11-06T15:47:18.014Z,100766.50
2018-11-06T15:50:22.862Z,100752.22
2018-11-06T15:53:27.214Z,100759.51
2018-11-06T15:56:32.350Z,100759.03
2018-11-06T15:59:36.770Z,100765.24
2018-11-06T16:02:41.118Z,100768.46
2018-11-06T16:05:45.419Z,100760.50
2018-11-06T16:08:50.509Z,100761.91
2018-11-06T16:11:55.391Z,100770.48
2018-11-06T16:15:00.703Z,100776.41
2018-11-06T16:18:05.137Z,100773.80
2018-11-06T16:21:09.968Z,100767.75
2018-11-06T16:24:14.763Z,100766.55
2018-11-06T16:27:19.158Z,100771.23
2018-11-06T16:30:23.875Z,100780.78
2018-11-06T16:33:28.671Z,100786.78
2018-11-06T16:36:33.428Z,100784.66
2018-11-06T16:39:37.815Z,100776.52
2018-11-06T16:42:43.541Z,100777.41
2018-11-06T16:45:48.527Z,100776.05
2018-11-06T16:48:53.561Z,100780.21
2018-11-06T16:51:58.048Z,100782.00
2018-11-06T16:55:02.651Z,100785.77
2018-11-06T16:58:06.912Z,100787.48
2018-11-06T17:01:11.587Z,100787.28
2018-11-06T17:04:16.514Z,100795.30
2018-11-06T17:07:21.566Z,100793.63
2018-11-06T17:10:32.651Z,100790.34
2018-11-06T17:13:38.181Z,100794.75
2018-11-06T17:16:43.377Z,100793.06
2018-11-06T17:19:47.847Z,100798.76
2018-11-06T17:22:52.229Z,100799.98
2018-11-06T17:25:56.855Z,100793.92
2018-11-06T17:29:01.612Z,100798.19
2018-11-06T17:32:06.203Z,100802.06
2018-11-06T17:35:13.059Z,100807.47
2018-11-06T17:38:18.125Z,100810.77
2018-11-06T17:41:22.711Z,100809.84
2018-11-06T17:44:27.701Z,100816.73
2018-11-06T17:47:32.944Z,100821.02
2018-11-06T17:50:38.269Z,100826.25
2018-11-06T17:53:43.596Z,100822.28
2018-11-06T17:56:48.521Z,100822.42
2018-11-06T17:59:53.585Z,100826.33
2018-11-06T18:02:58.158Z,100830.92
2018-11-06T18:08:36.504Z,100840.36
2018-11-06T18:11:42.460Z,100840.91
2018-11-06T18:14:46.819Z,100843.87
2018-11-06T18:17:51.525Z,100834.81
2018-11-06T18:20:55.675Z,100833.52
2018-11-06T18:24:00.072Z,100834.02
2018-11-06T18:27:04.546Z,100828.52
2018-11-06T18:30:13.841Z,100832.00
2018-11-06T18:33:18.329Z,100825.64
2018-11-06T18:36:22.878Z,100824.71
2018-11-06T18:39:27.363Z,100825.58
2018-11-06T18:42:31.972Z,100829.52
2018-11-06T18:45:36.926Z,100828.23
2018-11-06T18:48:41.566Z,100834.22
2018-11-06T18:51:46.071Z,100835.73
2018-11-06T18:54:50.592Z,100830.52
2018-11-06T18:57:55.554Z,100837.31
2018-11-06T19:01:02.500Z,100836.08
2018-11-06T19:04:08.003Z,100840.03
2018-11-06T19:07:12.933Z,100843.36
2018-11-06T19:10:17.889Z,100844.72
2018-11-06T19:13:23.292Z,100836.95
2018-11-06T19:16:28.760Z,100841.26
2018-11-06T19:19:34.247Z,100841.89
2018-11-06T19:22:38.951Z,100848.68
2018-11-06T19:25:43.827Z,100842.20
2018-11-06T19:28:48.476Z,100847.45
2018-11-06T19:34:27.864Z,100837.89
2018-11-06T19:37:32.827Z,100842.26
2018-11-06T19:40:39.244Z,100842.33
2018-11-06T19:43:45.015Z,100850.18
2018-11-06T19:46:50.080Z,100847.77
2018-11-06T19:49:55.504Z,100846.05
2018-11-06T19:53:00.611Z,100846.07
2018-11-06T19:56:05.790Z,100843.41
2018-11-06T19:59:10.186Z,100834.81
2018-11-06T20:02:15.297Z,100841.80
2018-11-06T20:05:20.075Z,100840.44
2018-11-06T20:08:24.596Z,100834.84
2018-11-06T20:11:29.573Z,100824.97
2018-11-06T20:14:34.631Z,100832.81
2018-11-06T20:17:39.706Z,100830.16
2018-11-06T20:20:44.235Z,100827.19
2018-11-06T20:23:48.903Z,100828.48
2018-11-06T20:26:54.554Z,100826.52
2018-11-06T20:29:59.510Z,100825.23
2018-11-06T20:33:05.176Z,100820.34
2018-11-06T20:36:09.958Z,100818.74
2018-11-06T20:39:14.864Z,100808.50
2018-11-06T20:42:21.572Z,100811.48
2018-11-06T20:45:27.694Z,100815.23
2018-11-06T20:48:33.677Z,100814.05
2018-11-06T20:51:38.806Z,100811.96
2018-11-06T20:54:43.934Z,100814.05
2018-11-06T20:57:49.535Z,100823.13
2018-11-06T21:00:54.122Z,100820.55
2018-11-06T21:03:58.729Z,100817.07
2018-11-06T21:07:05.304Z,100814.88
2018-11-06T21:10:09.905Z,100817.89
2018-11-06T21:13:14.419Z,100818.38
2018-11-06T21:16:18.811Z,100806.80
2018-11-06T21:19:23.608Z,100805.99
2018-11-06T21:22:28.481Z,100803.88
2018-11-06T21:25:35.407Z,100798.63
2018-11-06T21:28:39.765Z,100795.54
2018-11-06T21:31:44.178Z,100789.08
2018-11-06T21:34:49.690Z,100782.97
2018-11-06T21:37:55.627Z,100784.62
2018-11-06T21:41:00.016Z,100784.27
2018-11-06T21:44:04.446Z,100779.52
2018-11-06T21:47:08.913Z,100782.09
2018-11-06T21:50:14.276Z,100779.94
2018-11-06T21:53:18.738Z,100780.00
2018-11-06T21:56:23.190Z,100776.12
2018-11-06T21:59:27.591Z,100776.29
2018-11-06T22:02:35.637Z,100766.67
2018-11-06T22:05:40.343Z,100763.23
2018-11-06T22:08:44.801Z,100765.80
2018-11-06T22:11:49.229Z,100763.53
2018-11-06T22:14:53.605Z,100767.59
2018-11-06T22:18:00.621Z,100765.07
2018-11-06T22:33:02.234Z,100770.48
2018-11-06T22:36:06.624Z,100765.80
2018-11-06T22:39:11.514Z,100769.09
2018-11-06T22:42:15.776Z,100773.52
2018-11-06T22:45:20.132Z,100768.41
2018-11-06T22:48:24.415Z,100759.64
2018-11-06T22:51:28.789Z,100766.55
2018-11-06T22:54:33.238Z,100764.22
2018-11-06T22:57:37.664Z,100765.92
2018-11-06T23:00:47.346Z,100764.15
2018-11-06T23:03:52.245Z,100755.13
2018-11-06T23:06:56.922Z,100757.30
2018-11-06T23:10:01.144Z,100755.57
2018-11-06T23:13:05.534Z,100760.33
2018-11-06T23:16:09.898Z,100763.02
2018-11-06T23:19:14.810Z,100763.09
2018-11-06T23:22:19.063Z,100760.12
2018-11-06T23:25:23.378Z,100752.35
2018-11-06T23:28:27.711Z,100751.11
2018-11-06T23:31:31.977Z,100749.88
2018-11-06T23:34:36.835Z,100741.73
2018-11-06T23:37:41.892Z,100749.94
2018-11-06T23:40:46.848Z,100743.45
2018-11-06T23:43:51.229Z,100740.42
2018-11-06T23:46:55.471Z,100747.66
2018-11-06T23:49:59.824Z,100744.56
2018-11-06T23:53:04.191Z,100735.44
2018-11-06T23:56:08.518Z,100734.72
2018-11-06T23:59:12.798Z,100728.97
